Time;durP1;ratioP1;P1;durP2;ratioP2;P2;SDS_P1;SDS_P2;PMS_P1;PMS_P2;Temp;Humidity;BMP_temperature;BMP_pressure;BME280_temperature;BME280_humidity;BME280_pressure;Samples;Min_cycle;Max_cycle;Signal;HPM_P1;HPM_P2
2022/05/02 00:00:39;;;;;;;10.75;8.95;;;10.10;97.70;;;;;;2082175;28;20052;-68
2022/05/02 00:01:39;;;;;;;10.68;9.57;;;10.10;97.40;;;;;;2080642;28;20151;-68
2022/05/02 00:02:40;;;;;;;11.93;10.73;;;10.10;97.60;;;;;;2080455;28;20037;-68
2022/05/02 00:03:41;;;;;;;10.82;8.40;;;10.10;98.20;;;;;;2080522;28;20044;-68
2022/05/02 00:04:41;;;;;;;9.57;8.60;;;10.00;97.70;;;;;;2080511;28;20029;-68
2022/05/02 00:05:42;;;;;;;11.02;9.93;;;10.00;97.60;;;;;;2079892;28;20033;-68
2022/05/02 00:06:43;;;;;;;9.70;8.80;;;10.00;98.10;;;;;;2083335;28;20032;-68
2022/05/02 00:07:43;;;;;;;10.77;9.68;;;10.00;98.40;;;;;;2077073;28;20049;-68
2022/05/02 00:08:44;;;;;;;10.40;9.10;;;10.00;98.60;;;;;;2079709;28;20052;-68
2022/05/02 00:09:44;;;;;;;11.23;9.68;;;10.00;98.30;;;;;;2079300;28;20026;-68
2022/05/02 00:10:45;;;;;;;9.75;8.75;;;10.00;98.50;;;;;;2081809;28;20023;-68
2022/05/02 00:11:45;;;;;;;8.93;8.02;;;10.00;98.20;;;;;;2080288;28;20021;-68
2022/05/02 00:12:46;;;;;;;9.90;8.93;;;9.90;97.50;;;;;;2079781;28;20018;-68
2022/05/02 00:13:47;;;;;;;11.93;10.77;;;9.90;97.80;;;;;;2080617;28;20032;-68
2022/05/02 00:14:47;;;;;;;9.45;8.55;;;9.90;98.60;;;;;;2083096;28;20476;-68
2022/05/02 00:15:48;;;;;;;11.10;9.77;;;9.90;98.30;;;;;;2082381;28;20033;-68
2022/05/02 00:16:48;;;;;;;11.23;10.13;;;9.90;98.90;;;;;;2080570;28;20024;-68
2022/05/02 00:17:59;;;;;;;11.32;10.15;;;9.90;99.80;;;;;;2080640;28;20124;-68
2022/05/02 00:18:59;;;;;;;11.80;9.45;;;9.90;99.60;;;;;;2080474;28;20079;-68
2022/05/02 00:20:00;;;;;;;10.52;9.52;;;9.80;99.40;;;;;;2080999;28;20041;-68
2022/05/02 00:21:00;;;;;;;11.00;9.90;;;9.80;99.30;;;;;;2083021;28;20112;-68
2022/05/02 00:22:01;;;;;;;14.20;10.75;;;9.80;99.70;;;;;;2083981;28;20035;-68
2022/05/02 00:23:07;;;;;;;11.82;10.57;;;9.80;99.90;;;;;;2080054;28;20426;-68
2022/05/02 00:24:09;;;;;;;10.57;9.48;;;9.80;99.90;;;;;;2080581;28;20095;-68
2022/05/02 00:25:09;;;;;;;12.32;10.98;;;9.70;99.90;;;;;;2079581;28;20024;-68
2022/05/02 00:26:10;;;;;;;13.73;10.48;;;9.70;99.90;;;;;;2080488;28;20037;-68
2022/05/02 00:27:10;;;;;;;11.00;9.82;;;9.70;99.90;;;;;;2080541;28;20061;-68
2022/05/02 00:28:13;;;;;;;9.50;8.60;;;9.70;99.90;;;;;;2080583;28;20045;-68
2022/05/02 00:29:14;;;;;;;11.10;10.05;;;9.70;99.90;;;;;;2080018;28;20573;-68
2022/05/02 00:30:15;;;;;;;10.13;9.23;;;9.70;99.90;;;;;;2081337;28;20417;-68
2022/05/02 00:31:16;;;;;;;11.30;9.23;;;9.70;99.90;;;;;;2080356;28;20013;-68
2022/05/02 00:32:16;;;;;;;10.73;9.63;;;9.70;99.90;;;;;;2080889;28;20096;-68
2022/05/02 00:33:20;;;;;;;10.73;9.63;;;9.60;99.90;;;;;;2082573;28;20026;-68
2022/05/02 00:34:20;;;;;;;9.93;8.98;;;9.60;99.90;;;;;;2079777;28;20388;-68
2022/05/02 00:35:21;;;;;;;11.32;10.23;;;9.60;99.90;;;;;;2083959;28;20614;-68
2022/05/02 00:36:21;;;;;;;9.57;8.43;;;9.60;99.90;;;;;;2079871;28;20029;-68
2022/05/02 00:37:22;;;;;;;10.45;9.43;;;9.60;99.90;;;;;;2082196;28;20025;-68
2022/05/02 00:38:22;;;;;;;10.15;9.02;;;9.60;99.90;;;;;;2080997;28;20048;-68
2022/05/02 00:39:23;;;;;;;12.32;11.07;;;9.60;99.90;;;;;;2083219;28;20018;-68
2022/05/02 00:40:24;;;;;;;12.57;11.27;;;9.50;99.90;;;;;;2082448;28;20705;-68
2022/05/02 00:41:26;;;;;;;13.00;10.65;;;9.50;99.90;;;;;;2081154;28;20493;-68
2022/05/02 00:42:26;;;;;;;12.60;11.30;;;9.50;99.90;;;;;;2079490;28;20127;-68
2022/05/02 00:43:27;;;;;;;10.50;9.48;;;9.50;99.90;;;;;;2079504;28;20025;-68
2022/05/02 00:44:27;;;;;;;10.77;9.68;;;9.50;99.90;;;;;;2081084;28;20095;-68
2022/05/02 00:45:28;;;;;;;11.52;10.45;;;9.50;99.90;;;;;;2079719;28;20501;-68
2022/05/02 00:46:28;;;;;;;11.25;9.55;;;9.50;99.90;;;;;;2080089;28;20107;-68
2022/05/02 00:47:29;;;;;;;11.02;9.93;;;9.40;99.90;;;;;;2082911;28;20078;-68
2022/05/02 00:48:29;;;;;;;11.50;10.40;;;9.40;99.90;;;;;;2080714;28;20809;-68
2022/05/02 00:49:30;;;;;;;9.75;8.85;;;9.40;99.90;;;;;;2080164;28;20025;-68
2022/05/02 00:50:33;;;;;;;11.38;9.65;;;9.40;99.90;;;;;;2080614;28;20029;-68
2022/05/02 00:51:34;;;;;;;12.15;10.95;;;9.40;99.90;;;;;;2080333;28;20021;-68
2022/05/02 00:52:34;;;;;;;12.80;11.10;;;9.30;99.90;;;;;;2081871;28;20022;-68
2022/05/02 00:53:35;;;;;;;11.77;10.57;;;9.40;99.90;;;;;;2081502;28;20029;-68
2022/05/02 00:54:39;;;;;;;10.85;9.82;;;9.30;99.90;;;;;;2079796;28;20029;-68
2022/05/02 00:55:41;;;;;;;11.52;10.30;;;9.30;99.90;;;;;;2076023;28;20116;-68
2022/05/02 00:56:41;;;;;;;11.02;9.98;;;9.30;99.90;;;;;;2081677;28;20427;-68
2022/05/02 00:57:42;;;;;;;10.38;9.38;;;9.30;99.90;;;;;;2081087;28;20029;-68
2022/05/02 00:58:44;;;;;;;10.90;9.80;;;9.30;99.90;;;;;;2078374;28;20022;-68
2022/05/02 00:59:45;;;;;;;10.05;8.68;;;9.30;99.90;;;;;;2080233;28;20029;-68
2022/05/02 01:00:45;;;;;;;14.00;9.95;;;9.30;99.90;;;;;;2079622;28;20029;-68
2022/05/02 01:01:46;;;;;;;10.70;9.23;;;9.30;99.90;;;;;;2082202;28;20032;-68
2022/05/02 01:02:46;;;;;;;11.95;10.43;;;9.30;99.90;;;;;;2079817;28;20120;-68
2022/05/02 01:03:47;;;;;;;10.48;9.15;;;9.20;99.90;;;;;;2081778;28;20033;-68
2022/05/02 01:04:47;;;;;;;11.05;9.55;;;9.20;99.90;;;;;;2079809;28;20029;-68
2022/05/02 01:07:11;;;;;;;11.85;10.68;;;9.20;99.90;;;;;;2078249;28;20037;-68
2022/05/02 01:08:12;;;;;;;11.15;9.95;;;9.20;99.90;;;;;;2084109;28;20040;-68
2022/05/02 01:09:13;;;;;;;11.93;10.57;;;9.20;99.90;;;;;;2079798;28;20038;-68
2022/05/02 01:10:17;;;;;;;11.75;10.55;;;9.10;99.90;;;;;;2079310;28;20029;-68
2022/05/02 01:11:17;;;;;;;10.38;9.48;;;9.10;99.90;;;;;;2081407;28;20013;-68
2022/05/02 01:12:26;;;;;;;10.15;9.15;;;9.10;99.90;;;;;;2079195;28;20049;-68
2022/05/02 01:13:36;;;;;;;10.48;9.45;;;9.10;99.90;;;;;;2080951;28;20033;-68
2022/05/02 01:14:38;;;;;;;11.43;9.75;;;9.10;99.90;;;;;;2080704;28;20044;-68
2022/05/02 01:15:38;;;;;;;13.90;12.50;;;9.00;99.90;;;;;;2079322;28;20481;-68
2022/05/02 01:16:39;;;;;;;11.30;10.18;;;9.00;99.90;;;;;;2080977;28;20400;-68
2022/05/02 01:17:39;;;;;;;12.40;11.20;;;9.00;99.90;;;;;;2081443;28;20059;-68
2022/05/02 01:18:42;;;;;;;10.05;9.13;;;9.00;99.90;;;;;;2081906;28;20024;-68
2022/05/02 01:19:44;;;;;;;11.98;9.82;;;9.00;99.90;;;;;;2081916;28;20111;-69
2022/05/02 01:20:44;;;;;;;12.35;11.10;;;9.00;99.90;;;;;;2082621;28;20029;-68
2022/05/02 01:21:45;;;;;;;10.73;9.63;;;9.00;99.90;;;;;;2081404;28;20828;-68
2022/05/02 01:22:46;;;;;;;10.90;9.80;;;9.00;99.90;;;;;;2079868;28;20116;-68
2022/05/02 01:23:59;;;;;;;10.90;9.80;;;9.00;99.90;;;;;;2079545;28;20356;-68
2022/05/02 01:25:00;;;;;;;11.18;10.00;;;8.90;99.90;;;;;;2077497;28;20024;-68
2022/05/02 01:26:00;;;;;;;11.48;10.38;;;8.90;99.90;;;;;;2082237;28;20036;-68
2022/05/02 01:27:01;;;;;;;10.73;9.73;;;8.90;99.90;;;;;;2082450;28;20128;-68
2022/05/02 01:28:02;;;;;;;11.45;10.30;;;8.90;99.90;;;;;;2081581;28;20044;-68
2022/05/02 01:29:03;;;;;;;11.77;9.73;;;8.90;99.90;;;;;;2079914;28;20094;-68
2022/05/02 01:30:04;;;;;;;11.27;10.07;;;8.90;99.90;;;;;;2080580;28;20025;-68
2022/05/02 01:31:05;;;;;;;12.07;10.52;;;8.90;99.90;;;;;;2080596;28;20060;-68
2022/05/02 01:32:07;;;;;;;11.90;10.80;;;8.80;99.90;;;;;;2079717;28;20025;-68
2022/05/02 01:33:09;;;;;;;12.20;10.95;;;8.80;99.90;;;;;;2082022;28;20033;-68
2022/05/02 01:34:10;;;;;;;12.80;11.45;;;8.80;99.90;;;;;;2081197;28;20017;-68
2022/05/02 01:35:10;;;;;;;11.65;10.45;;;8.80;99.90;;;;;;2080797;28;20047;-68
2022/05/02 01:36:11;;;;;;;11.70;10.50;;;8.80;99.90;;;;;;2080075;28;20055;-68
2022/05/02 01:37:13;;;;;;;12.05;10.35;;;8.80;99.90;;;;;;2079882;28;20087;-68
2022/05/02 01:38:14;;;;;;;10.63;9.60;;;8.80;99.90;;;;;;2078771;28;20060;-68
2022/05/02 01:39:15;;;;;;;10.15;9.20;;;8.70;99.90;;;;;;2080843;28;20036;-68
2022/05/02 01:40:16;;;;;;;10.68;9.55;;;8.70;99.90;;;;;;2079210;28;20026;-68
2022/05/02 01:41:16;;;;;;;9.98;9.05;;;8.70;99.90;;;;;;2079686;28;20045;-68
2022/05/02 01:42:17;;;;;;;11.77;10.57;;;8.70;99.90;;;;;;2079422;28;20117;-68
2022/05/02 01:43:18;;;;;;;11.48;10.38;;;8.70;99.90;;;;;;2079540;28;20041;-68
2022/05/02 01:44:18;;;;;;;11.45;10.32;;;8.70;99.90;;;;;;2079693;28;20497;-68
2022/05/02 01:45:19;;;;;;;12.75;10.95;;;8.70;99.90;;;;;;2080726;28;20026;-68
2022/05/02 01:46:19;;;;;;;10.98;9.98;;;8.70;99.90;;;;;;2080834;28;20053;-68
2022/05/02 01:47:20;;;;;;;11.93;10.82;;;8.70;99.90;;;;;;2079334;28;20040;-68
2022/05/02 01:48:20;;;;;;;12.38;11.05;;;8.70;99.90;;;;;;2080150;28;20021;-68
2022/05/02 01:49:22;;;;;;;10.93;9.82;;;8.60;99.90;;;;;;2082691;28;20029;-68
2022/05/02 01:50:22;;;;;;;12.57;11.38;;;8.60;99.90;;;;;;2073106;28;20041;-68
2022/05/02 01:51:23;;;;;;;12.18;11.00;;;8.60;99.90;;;;;;2079088;28;20018;-68
2022/05/02 01:52:23;;;;;;;13.15;10.43;;;8.60;99.90;;;;;;2079262;28;20026;-68
2022/05/02 01:53:25;;;;;;;11.88;10.65;;;8.60;99.90;;;;;;2079761;28;20037;-68
2022/05/02 01:54:26;;;;;;;12.77;11.27;;;8.60;99.90;;;;;;2076514;28;20021;-68
2022/05/02 01:55:27;;;;;;;10.00;9.00;;;8.60;99.90;;;;;;2079958;28;20031;-69
2022/05/02 01:56:27;;;;;;;12.10;11.00;;;8.60;99.90;;;;;;2080849;28;20029;-68
2022/05/02 01:57:28;;;;;;;12.25;11.05;;;8.60;99.90;;;;;;2083237;28;20041;-68
2022/05/02 01:58:28;;;;;;;11.90;10.75;;;8.50;99.90;;;;;;2082342;28;20116;-68
2022/05/02 01:59:29;;;;;;;11.10;10.05;;;8.50;99.90;;;;;;2078913;28;20071;-68
2022/05/02 02:00:29;;;;;;;11.45;10.10;;;8.50;99.90;;;;;;2079078;28;20028;-68
2022/05/02 02:01:30;;;;;;;11.73;10.52;;;8.50;99.90;;;;;;2080957;28;20084;-68
2022/05/02 02:02:31;;;;;;;11.88;10.70;;;8.50;99.90;;;;;;2082972;28;20091;-68
2022/05/02 02:03:31;;;;;;;12.63;11.13;;;8.50;99.90;;;;;;2080042;28;20470;-68
2022/05/02 02:05:51;;;;;;;10.98;9.98;;;8.50;99.90;;;;;;2076653;28;20022;-68
2022/05/02 02:06:53;;;;;;;11.45;10.27;;;8.40;99.90;;;;;;2081147;28;20038;-68
2022/05/02 02:07:53;;;;;;;12.10;10.85;;;8.40;99.90;;;;;;2080429;28;20022;-68
2022/05/02 02:08:54;;;;;;;11.75;10.75;;;8.50;99.90;;;;;;2079495;28;20048;-68
2022/05/02 02:09:54;;;;;;;14.48;10.07;;;8.40;99.90;;;;;;2078704;28;20030;-68
2022/05/02 02:10:59;;;;;;;11.13;10.00;;;8.40;99.90;;;;;;2080851;28;20038;-68
2022/05/02 02:11:59;;;;;;;11.38;10.30;;;8.40;99.90;;;;;;2080412;28;20017;-68
2022/05/02 02:13:00;;;;;;;12.63;11.30;;;8.40;99.90;;;;;;2079352;28;20866;-68
2022/05/02 02:14:00;;;;;;;11.35;10.25;;;8.40;99.90;;;;;;2080214;28;20052;-68
2022/05/02 02:15:01;;;;;;;11.52;10.43;;;8.40;99.90;;;;;;2080154;28;20025;-68
2022/05/02 02:16:06;;;;;;;12.43;11.13;;;8.40;99.90;;;;;;2080265;28;20049;-68
2022/05/02 02:17:07;;;;;;;12.70;11.40;;;8.40;99.90;;;;;;2080639;28;20029;-68
2022/05/02 02:18:07;;;;;;;14.65;12.02;;;8.40;99.90;;;;;;2079622;28;20036;-68
2022/05/02 02:19:08;;;;;;;13.18;11.77;;;8.40;99.90;;;;;;2079742;28;20030;-68
2022/05/02 02:20:11;;;;;;;12.05;10.85;;;8.40;99.90;;;;;;2083255;28;20448;-68
2022/05/02 02:21:12;;;;;;;12.63;10.85;;;8.40;99.90;;;;;;2081953;28;20120;-68
2022/05/02 02:22:19;;;;;;;11.38;10.27;;;8.40;99.90;;;;;;2080520;28;20485;-68
2022/05/02 02:23:20;;;;;;;13.85;12.40;;;8.30;99.90;;;;;;2079367;28;20021;-68
2022/05/02 02:24:21;;;;;;;12.05;10.85;;;8.30;99.90;;;;;;2078722;28;20021;-68
2022/05/02 02:25:22;;;;;;;12.48;11.35;;;8.30;99.90;;;;;;2078946;28;20025;-68
2022/05/02 02:26:22;;;;;;;11.88;10.77;;;8.30;99.90;;;;;;2079665;28;20081;-68
2022/05/02 02:27:23;;;;;;;16.27;11.75;;;8.30;99.90;;;;;;2078688;28;20049;-68
2022/05/02 02:28:24;;;;;;;14.00;11.95;;;8.30;99.90;;;;;;2079047;28;20063;-68
2022/05/02 02:29:24;;;;;;;11.27;10.18;;;8.30;99.90;;;;;;2080241;28;20485;-68
2022/05/02 02:30:25;;;;;;;10.98;9.82;;;8.30;99.90;;;;;;2080066;28;20105;-68
2022/05/02 02:31:26;;;;;;;13.25;12.00;;;8.30;99.90;;;;;;2080222;28;20080;-68
2022/05/02 02:32:28;;;;;;;13.30;11.85;;;8.30;99.90;;;;;;2080563;28;20094;-68
2022/05/02 02:33:28;;;;;;;11.43;10.20;;;8.30;99.90;;;;;;2078845;28;20025;-68
2022/05/02 02:34:29;;;;;;;10.82;9.77;;;8.30;99.90;;;;;;2078175;28;20025;-68
2022/05/02 02:35:30;;;;;;;11.25;10.07;;;8.30;99.90;;;;;;2078971;28;20036;-68
2022/05/02 02:36:31;;;;;;;12.57;11.20;;;8.30;99.90;;;;;;2080419;28;20040;-68
2022/05/02 02:37:31;;;;;;;12.63;11.43;;;8.30;99.90;;;;;;2079714;28;20044;-68
2022/05/02 02:38:32;;;;;;;13.68;10.73;;;8.30;99.90;;;;;;2079319;28;20032;-68
2022/05/02 02:39:32;;;;;;;10.60;9.57;;;8.30;99.90;;;;;;2082083;28;20017;-68
2022/05/02 02:40:33;;;;;;;13.30;12.02;;;8.30;99.90;;;;;;2080472;28;20021;-69
2022/05/02 02:41:33;;;;;;;13.63;12.20;;;8.30;99.90;;;;;;2080378;28;20485;-68
2022/05/02 02:42:34;;;;;;;12.65;11.40;;;8.30;99.90;;;;;;2081194;28;20512;-68
2022/05/02 02:43:35;;;;;;;13.27;11.77;;;8.30;99.90;;;;;;2082207;28;20357;-68
2022/05/02 02:44:35;;;;;;;13.25;11.45;;;8.30;99.90;;;;;;2082878;28;20091;-68
2022/05/02 02:45:36;;;;;;;13.23;11.93;;;8.30;99.90;;;;;;2082713;28;20096;-68
2022/05/02 02:46:37;;;;;;;12.43;11.23;;;8.30;99.90;;;;;;2079210;28;20037;-68
2022/05/02 02:47:38;;;;;;;12.50;11.27;;;8.30;99.90;;;;;;2081181;28;20109;-68
2022/05/02 02:48:38;;;;;;;14.35;12.90;;;8.30;99.90;;;;;;2080386;28;20028;-68
2022/05/02 02:49:39;;;;;;;17.73;14.35;;;8.30;99.90;;;;;;2080202;28;20040;-68
2022/05/02 02:50:39;;;;;;;14.13;12.73;;;8.30;99.90;;;;;;2079553;28;20025;-68
2022/05/02 02:51:40;;;;;;;14.32;12.82;;;8.30;99.90;;;;;;2081864;28;20025;-68
2022/05/02 02:52:41;;;;;;;12.82;11.63;;;8.30;99.90;;;;;;2078577;28;20022;-68
2022/05/02 02:53:41;;;;;;;14.85;11.23;;;8.30;99.90;;;;;;2080283;28;20032;-68
2022/05/02 02:54:42;;;;;;;11.68;10.60;;;8.30;99.90;;;;;;2081222;28;20028;-68
2022/05/02 02:55:42;;;;;;;13.50;12.13;;;8.30;99.90;;;;;;2080862;28;20835;-68
2022/05/02 02:56:43;;;;;;;11.68;10.65;;;8.30;99.90;;;;;;2080401;28;20029;-68
2022/05/02 02:57:43;;;;;;;11.95;10.75;;;8.30;99.90;;;;;;2080711;28;20067;-68
2022/05/02 02:58:44;;;;;;;13.93;11.48;;;8.40;99.90;;;;;;2078900;28;20040;-68
2022/05/02 02:59:45;;;;;;;13.05;11.73;;;8.30;99.90;;;;;;2081830;28;20452;-68
2022/05/02 03:00:45;;;;;;;12.32;11.13;;;8.30;99.90;;;;;;2079241;28;20104;-68
2022/05/02 03:01:46;;;;;;;12.95;11.65;;;8.30;99.90;;;;;;2080660;28;20112;-68
2022/05/02 03:02:49;;;;;;;12.68;11.48;;;8.40;99.90;;;;;;2081031;28;20152;-68
2022/05/02 03:03:50;;;;;;;15.27;13.40;;;8.40;99.90;;;;;;2082620;28;20461;-68
2022/05/02 03:06:10;;;;;;;11.40;10.30;;;8.40;99.90;;;;;;2081236;28;20481;-68
2022/05/02 03:07:12;;;;;;;12.43;11.23;;;8.30;99.90;;;;;;2080966;28;20714;-68
2022/05/02 03:08:12;;;;;;;14.43;12.93;;;8.30;99.90;;;;;;2080863;28;20044;-68
2022/05/02 03:09:13;;;;;;;13.13;11.93;;;8.40;99.90;;;;;;2080680;28;20113;-68
2022/05/02 03:10:13;;;;;;;14.52;11.57;;;8.40;99.90;;;;;;2083209;28;20030;-68
2022/05/02 03:11:14;;;;;;;13.25;12.05;;;8.30;99.90;;;;;;2080275;28;20061;-68
2022/05/02 03:12:14;;;;;;;13.05;11.85;;;8.40;99.90;;;;;;2080936;28;20029;-68
2022/05/02 03:13:15;;;;;;;13.85;12.55;;;8.40;99.90;;;;;;2080866;28;20084;-68
2022/05/02 03:14:15;;;;;;;12.85;11.55;;;8.40;99.90;;;;;;2081394;28;20030;-68
2022/05/02 03:15:17;;;;;;;14.50;13.02;;;8.40;99.90;;;;;;2081169;28;20543;-68
2022/05/02 03:16:18;;;;;;;14.50;11.93;;;8.40;99.90;;;;;;2080837;28;20436;-68
2022/05/02 03:17:18;;;;;;;13.07;11.77;;;8.40;99.90;;;;;;2083829;28;20508;-68
2022/05/02 03:18:19;;;;;;;12.82;11.40;;;8.40;99.90;;;;;;2083381;28;20029;-68
2022/05/02 03:19:20;;;;;;;15.23;13.77;;;8.40;99.90;;;;;;2079380;28;20393;-68
2022/05/02 03:20:20;;;;;;;16.77;15.18;;;8.40;99.90;;;;;;2082060;28;20117;-68
2022/05/02 03:21:21;;;;;;;17.55;15.80;;;8.40;99.90;;;;;;2081941;28;20025;-68
2022/05/02 03:22:21;;;;;;;16.63;14.93;;;8.40;99.90;;;;;;2079773;28;20401;-69
2022/05/02 03:23:23;;;;;;;14.18;12.82;;;8.40;99.90;;;;;;2080842;28;20057;-68
2022/05/02 03:24:23;;;;;;;13.68;12.48;;;8.40;99.90;;;;;;2080932;28;20101;-68
2022/05/02 03:25:24;;;;;;;13.68;12.27;;;8.40;99.90;;;;;;2080516;28;20033;-68
2022/05/02 03:26:24;;;;;;;13.50;11.93;;;8.50;99.90;;;;;;2080847;28;20048;-68
2022/05/02 03:27:25;;;;;;;12.55;11.45;;;8.40;99.90;;;;;;2080922;28;20025;-68
2022/05/02 03:28:25;;;;;;;14.98;12.50;;;8.40;99.90;;;;;;2080600;28;20029;-68
2022/05/02 03:29:26;;;;;;;16.13;14.43;;;8.40;99.90;;;;;;2081570;28;20137;-68
2022/05/02 03:30:27;;;;;;;14.48;13.00;;;8.40;99.90;;;;;;2078480;28;20685;-68
2022/05/02 03:31:27;;;;;;;15.05;13.57;;;8.40;99.90;;;;;;2080416;28;20071;-68
2022/05/02 03:32:28;;;;;;;13.52;12.23;;;8.40;99.90;;;;;;2081055;28;20044;-68
2022/05/02 03:33:28;;;;;;;14.57;13.15;;;8.40;99.90;;;;;;2081052;28;20021;-68
2022/05/02 03:34:29;;;;;;;15.63;13.48;;;8.40;99.90;;;;;;2080522;28;20033;-68
2022/05/02 03:35:30;;;;;;;13.43;11.98;;;8.40;99.90;;;;;;2081463;28;20057;-68
2022/05/02 03:36:31;;;;;;;15.75;14.15;;;8.40;99.90;;;;;;2080523;28;20108;-68
2022/05/02 03:37:31;;;;;;;12.68;11.60;;;8.40;99.90;;;;;;2080797;28;20034;-68
2022/05/02 03:38:32;;;;;;;16.33;14.70;;;8.40;99.90;;;;;;2081974;28;20018;-68
2022/05/02 03:39:32;;;;;;;15.30;13.80;;;8.40;99.90;;;;;;2082696;28;20025;-68
2022/05/02 03:40:33;;;;;;;17.83;15.38;;;8.40;99.90;;;;;;2083733;28;20037;-68
2022/05/02 03:41:33;;;;;;;15.52;14.02;;;8.40;99.90;;;;;;2081583;28;20028;-68
2022/05/02 03:42:35;;;;;;;16.48;14.77;;;8.40;99.90;;;;;;2080220;28;20091;-68
2022/05/02 03:43:36;;;;;;;17.00;14.15;;;8.40;99.90;;;;;;2080832;28;20021;-68
2022/05/02 03:44:37;;;;;;;15.07;13.52;;;8.40;99.90;;;;;;2081254;28;20037;-68
2022/05/02 03:45:37;;;;;;;19.23;14.60;;;8.40;99.90;;;;;;2080514;28;20047;-68
2022/05/02 03:46:38;;;;;;;15.05;13.55;;;8.40;99.90;;;;;;2079930;28;20516;-68
2022/05/02 03:47:38;;;;;;;15.25;13.23;;;8.40;99.90;;;;;;2081265;28;21742;-68
2022/05/02 03:48:39;;;;;;;15.80;14.40;;;8.40;99.90;;;;;;2080346;28;20025;-68
2022/05/02 03:49:39;;;;;;;17.98;16.08;;;8.40;99.90;;;;;;2083054;28;20034;-68
2022/05/02 03:50:40;;;;;;;18.77;16.02;;;8.40;99.90;;;;;;2076112;28;20572;-68
2022/05/02 03:51:40;;;;;;;14.23;12.82;;;8.40;99.90;;;;;;2080793;28;20503;-68
2022/05/02 03:52:41;;;;;;;15.75;14.30;;;8.40;99.90;;;;;;2080222;28;20025;-68
2022/05/02 03:53:42;;;;;;;13.60;12.40;;;8.40;99.90;;;;;;2080577;28;20587;-68
2022/05/02 03:54:43;;;;;;;16.10;12.65;;;8.40;99.90;;;;;;2083841;28;20024;-68
2022/05/02 03:55:45;;;;;;;15.07;13.63;;;8.40;99.90;;;;;;2080480;28;20468;-68
2022/05/02 03:56:45;;;;;;;11.88;10.85;;;8.40;99.90;;;;;;2082703;28;20025;-68
2022/05/02 03:57:46;;;;;;;12.25;10.95;;;8.40;99.90;;;;;;2080331;28;20030;-68
2022/05/02 03:58:46;;;;;;;14.85;13.48;;;8.40;99.90;;;;;;2082049;28;20029;-68
2022/05/02 03:59:47;;;;;;;15.30;13.70;;;8.40;99.90;;;;;;2079536;28;20721;-68
2022/05/02 04:00:48;;;;;;;14.05;12.75;;;8.40;99.90;;;;;;2080214;28;20524;-68
2022/05/02 04:01:49;;;;;;;13.07;11.88;;;8.40;99.90;;;;;;2080934;28;20521;-68
2022/05/02 04:02:49;;;;;;;13.48;12.07;;;8.30;99.90;;;;;;2080872;28;20444;-68
2022/05/02 04:03:50;;;;;;;13.43;12.13;;;8.40;99.90;;;;;;2082130;28;20087;-68
2022/05/02 04:04:50;;;;;;;13.32;11.23;;;8.40;99.90;;;;;;2083129;28;20036;-68
2022/05/02 04:05:51;;;;;;;14.85;13.43;;;8.30;99.90;;;;;;2081199;28;20412;-68
2022/05/02 04:06:51;;;;;;;11.60;10.50;;;8.30;99.90;;;;;;2081602;28;20030;-68
2022/05/02 04:07:52;;;;;;;14.60;12.50;;;8.30;99.90;;;;;;2080532;28;20147;-68
2022/05/02 04:08:53;;;;;;;13.50;12.25;;;8.30;99.90;;;;;;2080916;28;20033;-68
2022/05/02 04:09:53;;;;;;;13.85;12.45;;;8.30;99.90;;;;;;2080437;28;20485;-68
2022/05/02 04:10:54;;;;;;;15.00;13.38;;;8.30;99.90;;;;;;2080755;28;20029;-68
2022/05/02 04:11:54;;;;;;;13.75;12.43;;;8.30;99.90;;;;;;2079784;28;20025;-68
2022/05/02 04:12:55;;;;;;;15.05;13.02;;;8.30;99.90;;;;;;2078005;28;20029;-68
2022/05/02 04:13:55;;;;;;;12.60;11.35;;;8.30;99.90;;;;;;2082027;28;20029;-68
2022/05/02 04:14:56;;;;;;;15.15;13.73;;;8.30;99.90;;;;;;2079385;28;20025;-68
2022/05/02 04:15:56;;;;;;;13.80;12.40;;;8.30;99.90;;;;;;2077157;28;20033;-68
2022/05/02 04:16:57;;;;;;;12.35;11.25;;;8.30;99.90;;;;;;2078223;28;20074;-68
2022/05/02 04:17:58;;;;;;;12.85;11.60;;;8.30;99.90;;;;;;2079451;28;20025;-68
2022/05/02 04:18:58;;;;;;;13.82;12.43;;;8.30;99.90;;;;;;2080507;28;20497;-68
2022/05/02 04:19:59;;;;;;;14.88;13.02;;;8.30;99.90;;;;;;2079428;28;20433;-68
2022/05/02 04:20:59;;;;;;;13.02;11.30;;;8.30;99.90;;;;;;2080202;28;20029;-67
2022/05/02 04:22:00;;;;;;;15.57;14.07;;;8.20;99.90;;;;;;2081196;28;20029;-68
2022/05/02 04:23:00;;;;;;;14.00;12.60;;;8.20;99.90;;;;;;2080174;28;20047;-68
2022/05/02 04:24:01;;;;;;;16.02;11.95;;;8.20;99.90;;;;;;2080950;28;20030;-68
2022/05/02 04:25:02;;;;;;;14.35;12.95;;;8.20;99.90;;;;;;2080110;28;20036;-67
2022/05/02 04:26:03;;;;;;;15.20;13.73;;;8.20;99.90;;;;;;2083641;28;20458;-68
2022/05/02 04:27:03;;;;;;;13.48;12.18;;;8.20;99.90;;;;;;2079505;28;20095;-68
2022/05/02 04:28:04;;;;;;;13.32;12.13;;;8.20;99.90;;;;;;2080901;28;20075;-68
2022/05/02 04:29:05;;;;;;;13.23;11.90;;;8.20;99.90;;;;;;2080183;28;20040;-68
2022/05/02 04:30:06;;;;;;;12.77;11.48;;;8.20;99.90;;;;;;2080452;28;20024;-68
2022/05/02 04:31:06;;;;;;;13.10;11.90;;;8.20;99.90;;;;;;2080311;28;20026;-68
2022/05/02 04:32:07;;;;;;;14.07;12.68;;;8.20;99.90;;;;;;2081522;28;20025;-68
2022/05/02 04:33:08;;;;;;;13.07;11.60;;;8.20;99.90;;;;;;2081123;28;20034;-68
2022/05/02 04:34:09;;;;;;;12.98;11.77;;;8.20;99.90;;;;;;2082854;28;20080;-68
2022/05/02 04:35:12;;;;;;;14.10;12.73;;;8.20;99.90;;;;;;2084814;28;20017;-68
2022/05/02 04:36:13;;;;;;;14.90;13.45;;;8.20;99.90;;;;;;2079794;28;20060;-68
2022/05/02 04:37:14;;;;;;;16.17;14.57;;;8.20;99.90;;;;;;2080002;28;20018;-68
2022/05/02 04:38:14;;;;;;;16.08;14.48;;;8.20;99.90;;;;;;2081056;28;20037;-68
2022/05/02 04:39:15;;;;;;;15.82;12.95;;;8.20;99.90;;;;;;2079785;28;20043;-68
2022/05/02 04:40:15;;;;;;;15.07;13.57;;;8.20;99.90;;;;;;2082673;28;20030;-68
2022/05/02 04:41:16;;;;;;;13.75;12.48;;;8.20;99.90;;;;;;2080121;28;20025;-68
2022/05/02 04:42:18;;;;;;;14.90;13.40;;;8.20;99.90;;;;;;2080525;28;20038;-68
2022/05/02 04:43:18;;;;;;;12.50;11.25;;;8.20;99.90;;;;;;2079592;28;20077;-68
2022/05/02 04:44:19;;;;;;;12.80;11.60;;;8.20;99.90;;;;;;2077857;28;20022;-68
2022/05/02 04:45:19;;;;;;;14.93;12.95;;;8.10;99.90;;;;;;2077180;28;20159;-68
2022/05/02 04:46:21;;;;;;;12.82;11.52;;;8.10;99.90;;;;;;2081235;28;20033;-68
2022/05/02 04:47:21;;;;;;;15.35;13.65;;;8.20;99.90;;;;;;2076646;28;20029;-67
2022/05/02 04:48:22;;;;;;;13.35;11.80;;;8.10;99.90;;;;;;2078486;28;20521;-68
2022/05/02 04:49:22;;;;;;;15.50;13.90;;;8.10;99.90;;;;;;2079276;28;20029;-68
2022/05/02 04:50:23;;;;;;;15.45;13.85;;;8.10;99.90;;;;;;2079542;28;20113;-68
2022/05/02 04:51:24;;;;;;;14.90;13.52;;;8.20;99.90;;;;;;2079544;28;20025;-68
2022/05/02 04:52:24;;;;;;;13.88;12.55;;;8.10;99.90;;;;;;2079743;28;20026;-68
2022/05/02 04:53:25;;;;;;;14.15;12.75;;;8.20;99.90;;;;;;2079633;28;20032;-68
2022/05/02 04:54:25;;;;;;;14.10;12.73;;;8.10;99.90;;;;;;2080054;28;20045;-68
2022/05/02 04:55:26;;;;;;;14.38;12.98;;;8.10;99.90;;;;;;2080210;28;20033;-68
2022/05/02 04:56:27;;;;;;;14.77;13.48;;;8.20;99.90;;;;;;2079692;28;20469;-68
2022/05/02 04:57:27;;;;;;;13.80;12.43;;;8.10;99.90;;;;;;2079541;28;20105;-68
2022/05/02 04:58:28;;;;;;;16.45;14.75;;;8.10;99.90;;;;;;2079826;28;20045;-68
2022/05/02 04:59:28;;;;;;;14.50;13.30;;;8.10;99.90;;;;;;2079663;28;20030;-68
2022/05/02 05:00:29;;;;;;;14.32;12.82;;;8.20;99.90;;;;;;2079790;28;20021;-68
2022/05/02 05:01:29;;;;;;;13.85;12.52;;;8.20;99.90;;;;;;2079691;28;20025;-68
2022/05/02 05:02:30;;;;;;;15.95;14.27;;;8.20;99.90;;;;;;2079726;28;20532;-68
2022/05/02 05:03:30;;;;;;;15.60;14.18;;;8.20;99.90;;;;;;2079773;28;20466;-68
2022/05/02 05:04:31;;;;;;;16.23;14.65;;;8.20;99.90;;;;;;2079746;28;20469;-68
2022/05/02 05:05:32;;;;;;;14.60;13.20;;;8.20;99.90;;;;;;2079676;28;20017;-68
2022/05/02 05:06:32;;;;;;;15.45;13.93;;;8.20;99.90;;;;;;2079796;28;20021;-68
2022/05/02 05:07:36;;;;;;;16.67;14.98;;;8.20;99.90;;;;;;2079991;28;20025;-68
2022/05/02 05:08:36;;;;;;;16.95;15.32;;;8.20;99.90;;;;;;2078330;28;20053;-68
2022/05/02 05:09:37;;;;;;;15.98;14.20;;;8.20;99.90;;;;;;2078239;28;20578;-68
2022/05/02 05:10:58;;;;;;;18.70;16.75;;;8.30;99.90;;;;;;2078493;28;20034;-68
2022/05/02 05:12:16;;;;;;;16.73;15.00;;;8.30;99.90;;;;;;2077887;28;20026;-68
2022/05/02 05:13:19;;;;;;;16.08;14.38;;;8.20;99.90;;;;;;2077207;28;20501;-68
2022/05/02 05:16:36;;;;;;;17.45;15.57;;;8.30;99.90;;;;;;2077428;28;20092;-68
2022/05/02 05:18:17;;;;;;;16.35;14.75;;;8.30;99.90;;;;;;2078191;28;20049;-68
2022/05/02 05:19:44;;;;;;;16.20;14.73;;;8.30;99.90;;;;;;2075381;28;20029;-68
2022/05/02 05:20:50;;;;;;;18.67;15.45;;;8.30;99.90;;;;;;2073933;28;20137;-68
2022/05/02 05:22:07;;;;;;;17.27;15.50;;;8.30;99.90;;;;;;2077740;28;20095;-68